Shinko Maru — JD3707 — position and weather

sailwx.info

Track history (hours):
 
Tides and Currents Weather Stations Pressure Air Temp Water Temp Dewpoint Dewpoint Depression Visibility Wind Speed Wind Dir Waves Ship Positions

Shinko Maru

Last reported at 2017-Nov-17 10:23 UTC. Time now 2017-Nov-18 02:56 UTC.
Position N 34°48' E 139°07'.

Length 79 m; draft 5 m.

Type: Tanker. MMSI: 431005409.

Date/timePositionNaut miles runAvg speedWind from/ knotsBaromVisibWave heightAir tempDewpointWater temp
2017-Nov-17 10:23N 34°48' E 139°07'612.4
2017-Nov-17 09:52N 34°53' E 139°12'2112.7
2017-Nov-17 08:13N 35°04' E 139°34'313.2
2017-Nov-17 08:00N 35°05' E 139°37'612.9
2017-Nov-17 07:30N 35°09' E 139°43'612.8
2017-Nov-17 07:00N 35°15' E 139°46'612.7
2017-Nov-17 06:30N 35°20' E 139°42'611.6
2017-Nov-17 06:00N 35°26' E 139°45'5 9.9
2017-Nov-17 05:30N 35°30' E 139°47'1 1.9
2017-Nov-17 05:00N 35°31' E 139°46'0 0.0
2017-Nov-17 00:25N 35°31' E 139°46'0 1.1
2017-Nov-17 00:00N 35°31' E 139°46'3 5.5
2017-Nov-16 23:30N 35°29' E 139°48'0 0.4
2017-Nov-16 22:59N 35°29' E 139°48'0 0.0
2017-Nov-16 22:29N 35°29' E 139°48'0 0.0
2017-Nov-16 21:59N 35°29' E 139°48'0 0.0
2017-Nov-16 21:28N 35°29' E 139°48'0 0.0
2017-Nov-16 20:59N 35°29' E 139°48'0 0.0
2017-Nov-16 20:29N 35°29' E 139°48'0 0.0
2017-Nov-16 19:59N 35°29' E 139°48'0 0.0
2017-Nov-16 19:29N 35°29' E 139°48'0 0.0
2017-Nov-16 18:58N 35°29' E 139°48'0 0.0
2017-Nov-16 18:29N 35°29' E 139°48'0 0.0
2017-Nov-16 17:59N 35°29' E 139°48'0 0.0
2017-Nov-16 17:29N 35°29' E 139°48'0 0.0
2017-Nov-16 16:59N 35°29' E 139°48'0 0.0
2017-Nov-16 16:29N 35°29' E 139°48'0 0.0
2017-Nov-16 15:59N 35°29' E 139°48'0 0.0
2017-Nov-16 15:28N 35°29' E 139°48'0 0.0
2017-Nov-16 14:59N 35°29' E 139°48'0 0.0
2017-Nov-16 14:28N 35°29' E 139°48'0 0.0
2017-Nov-16 13:59N 35°29' E 139°48'0 0.0
2017-Nov-16 13:29N 35°29' E 139°48'0 0.0
2017-Nov-16 12:55N 35°29' E 139°48'0 0.1
2017-Nov-16 12:26N 35°29' E 139°48'3 7.3
2017-Nov-16 12:00N 35°26' E 139°47'612.2
2017-Nov-16 11:30N 35°20' E 139°44'611.3
2017-Nov-16 11:00N 35°15' E 139°47'612.2
2017-Nov-16 10:30N 35°09' E 139°46'612.6
2017-Nov-16 10:00N 35°03' E 139°42'612.9
2017-Nov-16 09:30N 34°59' E 139°36'8 0.5
2017-Nov-15 16:00N 34°51' E 139°35'710.7
2017-Nov-15 15:22N 34°52' E 139°43'1 0.0
2017-Nov-14 11:28N 34°50' E 139°43'612.4
2017-Nov-14 11:00N 34°50' E 139°36'42 1.3
2017-Nov-13 02:00N 35°31' E 139°46'1 2.0
2017-Nov-13 01:31N 35°30' E 139°47'2 4.1
2017-Nov-13 00:59N 35°29' E 139°48'0 0.0
2017-Nov-13 00:26N 35°29' E 139°48'0 0.0
2017-Nov-12 23:59N 35°29' E 139°48'0 0.0
2017-Nov-12 23:29N 35°29' E 139°48'0 0.0
2017-Nov-12 22:59N 35°29' E 139°48'0 0.0
2017-Nov-12 22:29N 35°29' E 139°48'0 0.0
2017-Nov-12 21:59N 35°29' E 139°48'0 0.0
2017-Nov-12 21:23N 35°29' E 139°48'0 0.0
2017-Nov-12 20:59N 35°29' E 139°48'0 0.0
2017-Nov-12 20:29N 35°29' E 139°48'0 0.0
2017-Nov-12 19:59N 35°29' E 139°48'0 0.0
2017-Nov-12 19:29N 35°29' E 139°48'0 0.0
2017-Nov-12 18:59N 35°29' E 139°48'0 0.0
2017-Nov-12 18:29N 35°29' E 139°48'0 0.1
2017-Nov-12 17:56N 35°29' E 139°48'0 0.0
2017-Nov-12 17:29N 35°29' E 139°48'0 0.0
2017-Nov-12 16:59N 35°29' E 139°48'0 0.1
2017-Nov-12 16:29N 35°29' E 139°48'0 0.1
2017-Nov-12 15:59N 35°29' E 139°48'0 0.1
2017-Nov-12 15:29N 35°29' E 139°48'0 0.0
2017-Nov-12 14:59N 35°29' E 139°48'0 0.1
2017-Nov-12 14:29N 35°29' E 139°48'0 0.1
2017-Nov-12 13:59N 35°29' E 139°48'0 0.0
2017-Nov-12 13:29N 35°29' E 139°48'2 4.7
2017-Nov-12 13:00N 35°27' E 139°47'713.3
2017-Nov-12 12:30N 35°20' E 139°44'612.1
2017-Nov-12 12:00N 35°15' E 139°47'612.8
2017-Nov-12 11:30N 35°08' E 139°46'612.6
2017-Nov-12 11:00N 35°03' E 139°42'713.4
2017-Nov-12 10:30N 34°59' E 139°35'8 0.5
2017-Nov-11 18:09N 34°51' E 139°33'1111.5
2017-Nov-11 17:13N 34°51' E 139°46'  
2017-Nov-09 08:08N 35°10' E 139°46'313.5
2017-Nov-09 07:56N 35°13' E 139°46'512.6
2017-Nov-09 07:30N 35°18' E 139°44'612.6
2017-Nov-09 07:00N 35°24' E 139°40'1 2.0
2017-Nov-09 06:30N 35°24' E 139°40'0 0.0
2017-Nov-09 06:00N 35°24' E 139°40'0 0.0
2017-Nov-09 05:27N 35°24' E 139°40'0 0.0
2017-Nov-09 04:57N 35°24' E 139°40'0 0.0
2017-Nov-09 04:30N 35°24' E 139°40'0 0.0
2017-Nov-09 04:00N 35°24' E 139°40'0 0.0
2017-Nov-09 03:30N 35°24' E 139°40'0 0.0
2017-Nov-09 03:00N 35°24' E 139°40'0 0.0
2017-Nov-09 02:30N 35°24' E 139°40'0 0.0
2017-Nov-09 02:00N 35°24' E 139°40'0 0.0
2017-Nov-09 01:30N 35°24' E 139°40'0 0.0
2017-Nov-09 01:00N 35°24' E 139°40'0 0.0
2017-Nov-09 00:27N 35°24' E 139°40'0 0.3
2017-Nov-09 00:00N 35°24' E 139°39'1 2.3
2017-Nov-08 23:30N 35°23' E 139°40'1 2.3
2017-Nov-08 23:00N 35°22' E 139°41'0 0.1
2017-Nov-08 22:30N 35°22' E 139°41'0 0.0
2017-Nov-08 21:57N 35°22' E 139°41'0 0.0
2017-Nov-08 21:30N 35°22' E 139°41'0 0.0
2017-Nov-08 21:00N 35°22' E 139°41'0 0.1
2017-Nov-08 20:30N 35°22' E 139°41'0 0.2
2017-Nov-08 20:00N 35°22' E 139°41'0 0.0
2017-Nov-08 19:30N 35°22' E 139°41'0 0.0
2017-Nov-08 19:00N 35°22' E 139°41'0 0.0
2017-Nov-08 18:30N 35°22' E 139°41'0 0.1
2017-Nov-08 18:00N 35°22' E 139°41'0 0.1
2017-Nov-08 17:30N 35°22' E 139°41'0 0.0
2017-Nov-08 16:57N 35°22' E 139°41'0 0.0
2017-Nov-08 16:30N 35°22' E 139°41'0 0.0
2017-Nov-08 16:00N 35°22' E 139°41'0 0.0
2017-Nov-08 15:30N 35°22' E 139°41'0 0.0
2017-Nov-08 15:00N 35°22' E 139°41'0 0.0
2017-Nov-08 14:30N 35°22' E 139°41'0 0.0
2017-Nov-08 14:00N 35°22' E 139°41'0 0.1
2017-Nov-08 13:30N 35°22' E 139°41'0 0.0
2017-Nov-08 12:57N 35°22' E 139°41'0 0.0
2017-Nov-08 12:30N 35°22' E 139°41'0 0.1
2017-Nov-08 12:00N 35°22' E 139°41'0 0.0
2017-Nov-08 11:30N 35°22' E 139°41'0 0.0
2017-Nov-08 11:00N 35°22' E 139°41'0 0.0
2017-Nov-08 10:30N 35°22' E 139°41'0 0.0
2017-Nov-08 09:57N 35°22' E 139°41'0 0.0
2017-Nov-08 09:30N 35°22' E 139°41'0 0.0
2017-Nov-08 09:00N 35°22' E 139°41'0 0.0
2017-Nov-08 08:30N 35°22' E 139°41'0 0.0
2017-Nov-08 08:00N 35°22' E 139°41'0 0.0
2017-Nov-08 07:30N 35°22' E 139°41'0 0.0
2017-Nov-08 07:00N 35°22' E 139°41'0 0.0
2017-Nov-08 06:30N 35°22' E 139°41'0 0.0
2017-Nov-08 06:00N 35°22' E 139°41'0 0.1
2017-Nov-08 05:30N 35°22' E 139°41'2 4.5
2017-Nov-08 05:00N 35°24' E 139°42'510.6
2017-Nov-08 04:31N 35°28' E 139°47'3 5.0
2017-Nov-08 04:01N 35°31' E 139°46'0 0.0
2017-Nov-08 00:08N 35°31' E 139°46'0 0.3
2017-Nov-08 00:00N 35°31' E 139°46'3 5.2
2017-Nov-07 23:30N 35°29' E 139°48'0 0.3
2017-Nov-07 23:00N 35°28' E 139°48'0 0.1
2017-Nov-07 22:26N 35°28' E 139°48'0 0.0
2017-Nov-07 21:56N 35°28' E 139°48'0 0.1
2017-Nov-07 21:29N 35°28' E 139°48'0 0.0
2017-Nov-07 20:56N 35°28' E 139°48'0 0.0
2017-Nov-07 20:29N 35°28' E 139°48'0 0.1
2017-Nov-07 19:56N 35°28' E 139°48'0 0.1
2017-Nov-07 18:56N 35°28' E 139°48'0 0.0
2017-Nov-07 18:29N 35°28' E 139°48'0 0.0
2017-Nov-07 17:59N 35°28' E 139°48'0 0.0
2017-Nov-07 17:29N 35°28' E 139°48'0 0.5
2017-Nov-07 17:00N 35°28' E 139°48'611.8
2017-Nov-07 16:30N 35°23' E 139°46'611.8
2017-Nov-07 16:00N 35°17' E 139°46'812.2
2017-Nov-07 15:22N 35°09' E 139°47'  
Track history (hours):
 
Tides and Currents Weather Stations Pressure Air Temp Water Temp Dewpoint Dewpoint Depression Visibility Wind Speed Wind Dir Waves Ship Positions

Shinko Maru

Last reported at 2017-Nov-17 10:23 UTC. Time now 2017-Nov-18 02:56 UTC.
Position N 34°48' E 139°07'.

Length 79 m; draft 5 m.

Type: Tanker. MMSI: 431005409.

Date/timePositionNaut miles runAvg speedWind from/ knotsBaromVisibWave heightAir tempDewpointWater temp
2017-Nov-17 10:23N 34°48' E 139°07'612.4
2017-Nov-17 09:52N 34°53' E 139°12'2112.7
2017-Nov-17 08:13N 35°04' E 139°34'313.2
2017-Nov-17 08:00N 35°05' E 139°37'612.9
2017-Nov-17 07:30N 35°09' E 139°43'612.8
2017-Nov-17 07:00N 35°15' E 139°46'612.7
2017-Nov-17 06:30N 35°20' E 139°42'611.6
2017-Nov-17 06:00N 35°26' E 139°45'5 9.9
2017-Nov-17 05:30N 35°30' E 139°47'1 1.9
2017-Nov-17 05:00N 35°31' E 139°46'0 0.0
2017-Nov-17 00:25N 35°31' E 139°46'0 1.1
2017-Nov-17 00:00N 35°31' E 139°46'3 5.5
2017-Nov-16 23:30N 35°29' E 139°48'0 0.4
2017-Nov-16 22:59N 35°29' E 139°48'0 0.0
2017-Nov-16 22:29N 35°29' E 139°48'0 0.0
2017-Nov-16 21:59N 35°29' E 139°48'0 0.0
2017-Nov-16 21:28N 35°29' E 139°48'0 0.0
2017-Nov-16 20:59N 35°29' E 139°48'0 0.0
2017-Nov-16 20:29N 35°29' E 139°48'0 0.0
2017-Nov-16 19:59N 35°29' E 139°48'0 0.0
2017-Nov-16 19:29N 35°29' E 139°48'0 0.0
2017-Nov-16 18:58N 35°29' E 139°48'0 0.0
2017-Nov-16 18:29N 35°29' E 139°48'0 0.0
2017-Nov-16 17:59N 35°29' E 139°48'0 0.0
2017-Nov-16 17:29N 35°29' E 139°48'0 0.0
2017-Nov-16 16:59N 35°29' E 139°48'0 0.0
2017-Nov-16 16:29N 35°29' E 139°48'0 0.0
2017-Nov-16 15:59N 35°29' E 139°48'0 0.0
2017-Nov-16 15:28N 35°29' E 139°48'0 0.0
2017-Nov-16 14:59N 35°29' E 139°48'0 0.0
2017-Nov-16 14:28N 35°29' E 139°48'0 0.0
2017-Nov-16 13:59N 35°29' E 139°48'0 0.0
2017-Nov-16 13:29N 35°29' E 139°48'0 0.0
2017-Nov-16 12:55N 35°29' E 139°48'0 0.1
2017-Nov-16 12:26N 35°29' E 139°48'3 7.3
2017-Nov-16 12:00N 35°26' E 139°47'612.2
2017-Nov-16 11:30N 35°20' E 139°44'611.3
2017-Nov-16 11:00N 35°15' E 139°47'612.2
2017-Nov-16 10:30N 35°09' E 139°46'612.6
2017-Nov-16 10:00N 35°03' E 139°42'612.9
2017-Nov-16 09:30N 34°59' E 139°36'8 0.5
2017-Nov-15 16:00N 34°51' E 139°35'710.7
2017-Nov-15 15:22N 34°52' E 139°43'1 0.0
2017-Nov-14 11:28N 34°50' E 139°43'612.4
2017-Nov-14 11:00N 34°50' E 139°36'42 1.3
2017-Nov-13 02:00N 35°31' E 139°46'1 2.0
2017-Nov-13 01:31N 35°30' E 139°47'2 4.1
2017-Nov-13 00:59N 35°29' E 139°48'0 0.0
2017-Nov-13 00:26N 35°29' E 139°48'0 0.0
2017-Nov-12 23:59N 35°29' E 139°48'0 0.0
2017-Nov-12 23:29N 35°29' E 139°48'0 0.0
2017-Nov-12 22:59N 35°29' E 139°48'0 0.0
2017-Nov-12 22:29N 35°29' E 139°48'0 0.0
2017-Nov-12 21:59N 35°29' E 139°48'0 0.0
2017-Nov-12 21:23N 35°29' E 139°48'0 0.0
2017-Nov-12 20:59N 35°29' E 139°48'0 0.0
2017-Nov-12 20:29N 35°29' E 139°48'0 0.0
2017-Nov-12 19:59N 35°29' E 139°48'0 0.0
2017-Nov-12 19:29N 35°29' E 139°48'0 0.0
2017-Nov-12 18:59N 35°29' E 139°48'0 0.0
2017-Nov-12 18:29N 35°29' E 139°48'0 0.1
2017-Nov-12 17:56N 35°29' E 139°48'0 0.0
2017-Nov-12 17:29N 35°29' E 139°48'0 0.0
2017-Nov-12 16:59N 35°29' E 139°48'0 0.1
2017-Nov-12 16:29N 35°29' E 139°48'0 0.1
2017-Nov-12 15:59N 35°29' E 139°48'0 0.1
2017-Nov-12 15:29N 35°29' E 139°48'0 0.0
2017-Nov-12 14:59N 35°29' E 139°48'0 0.1
2017-Nov-12 14:29N 35°29' E 139°48'0 0.1
2017-Nov-12 13:59N 35°29' E 139°48'0 0.0
2017-Nov-12 13:29N 35°29' E 139°48'2 4.7
2017-Nov-12 13:00N 35°27' E 139°47'713.3
2017-Nov-12 12:30N 35°20' E 139°44'612.1
2017-Nov-12 12:00N 35°15' E 139°47'612.8
2017-Nov-12 11:30N 35°08' E 139°46'612.6
2017-Nov-12 11:00N 35°03' E 139°42'713.4
2017-Nov-12 10:30N 34°59' E 139°35'8 0.5
2017-Nov-11 18:09N 34°51' E 139°33'1111.5
2017-Nov-11 17:13N 34°51' E 139°46'  
2017-Nov-09 08:08N 35°10' E 139°46'313.5
2017-Nov-09 07:56N 35°13' E 139°46'512.6
2017-Nov-09 07:30N 35°18' E 139°44'612.6
2017-Nov-09 07:00N 35°24' E 139°40'1 2.0
2017-Nov-09 06:30N 35°24' E 139°40'0 0.0
2017-Nov-09 06:00N 35°24' E 139°40'0 0.0
2017-Nov-09 05:27N 35°24' E 139°40'0 0.0
2017-Nov-09 04:57N 35°24' E 139°40'0 0.0
2017-Nov-09 04:30N 35°24' E 139°40'0 0.0
2017-Nov-09 04:00N 35°24' E 139°40'0 0.0
2017-Nov-09 03:30N 35°24' E 139°40'0 0.0
2017-Nov-09 03:00N 35°24' E 139°40'0 0.0
2017-Nov-09 02:30N 35°24' E 139°40'0 0.0
2017-Nov-09 02:00N 35°24' E 139°40'0 0.0
2017-Nov-09 01:30N 35°24' E 139°40'0 0.0
2017-Nov-09 01:00N 35°24' E 139°40'0 0.0
2017-Nov-09 00:27N 35°24' E 139°40'0 0.3
2017-Nov-09 00:00N 35°24' E 139°39'1 2.3
2017-Nov-08 23:30N 35°23' E 139°40'1 2.3
2017-Nov-08 23:00N 35°22' E 139°41'0 0.1
2017-Nov-08 22:30N 35°22' E 139°41'0 0.0
2017-Nov-08 21:57N 35°22' E 139°41'0 0.0
2017-Nov-08 21:30N 35°22' E 139°41'0 0.0
2017-Nov-08 21:00N 35°22' E 139°41'0 0.1
2017-Nov-08 20:30N 35°22' E 139°41'0 0.2
2017-Nov-08 20:00N 35°22' E 139°41'0 0.0
2017-Nov-08 19:30N 35°22' E 139°41'0 0.0
2017-Nov-08 19:00N 35°22' E 139°41'0 0.0
2017-Nov-08 18:30N 35°22' E 139°41'0 0.1
2017-Nov-08 18:00N 35°22' E 139°41'0 0.1
2017-Nov-08 17:30N 35°22' E 139°41'0 0.0
2017-Nov-08 16:57N 35°22' E 139°41'0 0.0
2017-Nov-08 16:30N 35°22' E 139°41'0 0.0
2017-Nov-08 16:00N 35°22' E 139°41'0 0.0
2017-Nov-08 15:30N 35°22' E 139°41'0 0.0
2017-Nov-08 15:00N 35°22' E 139°41'0 0.0
2017-Nov-08 14:30N 35°22' E 139°41'0 0.0
2017-Nov-08 14:00N 35°22' E 139°41'0 0.1
2017-Nov-08 13:30N 35°22' E 139°41'0 0.0
2017-Nov-08 12:57N 35°22' E 139°41'0 0.0
2017-Nov-08 12:30N 35°22' E 139°41'0 0.1
2017-Nov-08 12:00N 35°22' E 139°41'0 0.0
2017-Nov-08 11:30N 35°22' E 139°41'0 0.0
2017-Nov-08 11:00N 35°22' E 139°41'0 0.0
2017-Nov-08 10:30N 35°22' E 139°41'0 0.0
2017-Nov-08 09:57N 35°22' E 139°41'0 0.0
2017-Nov-08 09:30N 35°22' E 139°41'0 0.0
2017-Nov-08 09:00N 35°22' E 139°41'0 0.0
2017-Nov-08 08:30N 35°22' E 139°41'0 0.0
2017-Nov-08 08:00N 35°22' E 139°41'0 0.0
2017-Nov-08 07:30N 35°22' E 139°41'0 0.0
2017-Nov-08 07:00N 35°22' E 139°41'0 0.0
2017-Nov-08 06:30N 35°22' E 139°41'0 0.0
2017-Nov-08 06:00N 35°22' E 139°41'0 0.1
2017-Nov-08 05:30N 35°22' E 139°41'2 4.5
2017-Nov-08 05:00N 35°24' E 139°42'510.6
2017-Nov-08 04:31N 35°28' E 139°47'3 5.0
2017-Nov-08 04:01N 35°31' E 139°46'0 0.0
2017-Nov-08 00:08N 35°31' E 139°46'0 0.3
2017-Nov-08 00:00N 35°31' E 139°46'3 5.2
2017-Nov-07 23:30N 35°29' E 139°48'0 0.3
2017-Nov-07 23:00N 35°28' E 139°48'0 0.1
2017-Nov-07 22:26N 35°28' E 139°48'0 0.0
2017-Nov-07 21:56N 35°28' E 139°48'0 0.1
2017-Nov-07 21:29N 35°28' E 139°48'0 0.0
2017-Nov-07 20:56N 35°28' E 139°48'0 0.0
2017-Nov-07 20:29N 35°28' E 139°48'0 0.1
2017-Nov-07 19:56N 35°28' E 139°48'0 0.1
2017-Nov-07 18:56N 35°28' E 139°48'0 0.0
2017-Nov-07 18:29N 35°28' E 139°48'0 0.0
2017-Nov-07 17:59N 35°28' E 139°48'0 0.0
2017-Nov-07 17:29N 35°28' E 139°48'0 0.5
2017-Nov-07 17:00N 35°28' E 139°48'611.8
2017-Nov-07 16:30N 35°23' E 139°46'611.8
2017-Nov-07 16:00N 35°17' E 139°46'812.2
2017-Nov-07 15:22N 35°09' E 139°47'  

Dump ship's entire track history